CST,Max TemperatureF,Mean TemperatureF,Min TemperatureF,Max Dew PointF,MeanDew PointF,Min DewpointF,Max Humidity, Mean Humidity, Min Humidity, Max Sea Level PressureIn, Mean Sea Level PressureIn, Min Sea Level PressureIn, Max VisibilityMiles, Mean VisibilityMiles, Min VisibilityMiles, Max Wind SpeedMPH, Mean Wind SpeedMPH, Max Gust SpeedMPH,PrecipitationIn, CloudCover, Events, WindDirDegrees
2013-2-1,21,10,0,18,1,-7,88,72,62,30.41,30.31,30.14,10,10,5,18,13,30,0.00,4,Snow,239
2013-2-2,26,21,16,23,16,10,93,80,67,30.13,30.07,30.01,10,9,2,16,11,22,0.00,8,Snow,266
2013-2-3,27,22,17,22,16,13,97,78,62,30.12,30.03,29.95,10,10,3,21,8,32,0.00,5,Snow,240
2013-2-4,33,25,16,26,20,14,94,80,70,29.98,29.88,29.77,10,10,10,18,8,25,0.00,4,,14
2013-2-5,38,28,17,31,25,15,93,84,71,30.09,29.93,29.84,10,9,5,20,7,26,0.00,5,,245
2013-2-6,45,32,18,32,28,18,100,83,59,30.19,30.11,30.01,10,8,0,13,5,17,0.00,1,Fog-Rain,149
2013-2-7,36,34,32,36,34,31,100,96,85,30.05,29.95,29.86,10,5,1,16,7,22,0.56,8,Rain,162
2013-2-8,32,29,26,31,25,23,95,84,80,30.36,30.28,30.05,10,10,5,18,10,23,0.00,8,,14
2013-2-9,35,30,26,31,26,23,92,85,75,30.36,30.20,29.99,10,10,10,16,8,23,0.00,6,,140
2013-2-10,49,42,34,46,38,30,99,89,63,30.00,29.65,29.42,10,7,2,24,13,36,0.36,7,Rain-Thunderstorm,160
2013-2-11,37,33,29,30,24,22,81,72,68,30.11,29.89,29.61,10,10,10,32,23,43,0.00,8,,266
2013-2-12,37,32,26,27,25,23,95,78,57,30.13,30.04,29.91,10,10,10,14,9,18,0.00,4,,250
2013-2-13,44,34,24,32,28,23,96,79,58,29.91,29.79,29.73,10,10,7,14,6,17,0.00,1,,224
2013-2-14,39,35,31,32,30,27,93,81,69,30.04,29.86,29.70,10,10,10,23,13,33,0.00,6,,262
2013-2-15,32,26,18,27,15,10,90,67,43,30.24,30.19,30.05,10,10,10,20,12,25,0.00,2,,301
2013-2-16,28,19,10,15,11,7,88,74,57,30.23,30.18,30.14,10,10,10,16,10,21,0.00,1,,316
2013-2-17,36,24,12,24,16,9,90,69,48,30.17,30.07,29.85,10,10,10,14,6,23,0.00,0,,126
2013-2-18,52,37,21,46,31,16,100,79,58,29.85,29.66,29.48,10,8,1,25,13,34,0.43,4,Rain-Snow,193
2013-2-19,21,16,10,17,9,4,86,75,64,30.27,30.03,29.79,10,10,2,29,21,39,0.00,5,Snow,282
2013-2-20,19,10,2,13,6,-2,84,76,67,30.42,30.35,30.28,10,10,10,14,8,,0.00,0,,334
2013-2-21,28,18,8,25,18,6,96,85,76,30.34,30.15,29.85,10,7,1,24,9,33,0.03,4,Snow,80
2013-2-22,31,28,24,31,25,18,100,86,75,29.97,29.86,29.76,10,8,1,18,11,24,0.03,8,Snow,210
2013-2-23,28,22,16,20,17,14,88,78,68,29.99,29.97,29.95,10,10,10,13,9,,0.00,4,Snow,231
2013-2-24,36,22,9,25,19,7,95,79,58,30.11,30.07,29.99,10,8,4,7,3,,0.00,0,,139
2013-2-25,41,32,24,32,28,23,99,81,61,30.11,30.02,29.83,10,9,5,20,7,29,0.00,1,,75
2013-2-26,34,32,30,32,30,28,100,90,77,29.83,29.61,29.50,10,5,0,24,19,33,0.02,8,Snow,28
2013-2-27,32,30,29,32,30,28,99,95,90,29.82,29.71,29.60,10,4,1,15,11,20,0.01,8,Snow,306
2013-2-28,34,32,29,31,30,29,100,91,82,30.09,29.98,29.82,10,8,1,12,9,17,0.01,8,Snow,311